Time;durP1;ratioP1;P1;durP2;ratioP2;P2;SDS_P1;SDS_P2;PMS_P1;PMS_P2;Temp;Humidity;BMP_temperature;BMP_pressure;BME280_temperature;BME280_humidity;BME280_pressure;Samples;Min_cycle;Max_cycle;Signal;HPM_P1;HPM_P2
2021/03/16 00:00:20;;;;;;;2.40;1.00;;;;;;;;;;5027709;28;20187;-51
2021/03/16 00:02:47;;;;;;;2.17;0.80;;;;;;;;;;5037163;28;20164;-51
2021/03/16 00:05:13;;;;;;;2.28;0.88;;;;;;;;;;5026211;28;20184;-51
2021/03/16 00:07:39;;;;;;;0.80;0.75;;;;;;;;;;5027538;28;20468;-51
2021/03/16 00:10:05;;;;;;;0.70;0.70;;;;;;;;;;5036851;28;20187;-51
2021/03/16 00:12:31;;;;;;;1.25;0.90;;;;;;;;;;5035457;28;20187;-51
2021/03/16 00:14:57;;;;;;;0.77;0.77;;;;;;;;;;5023709;28;20185;-51
2021/03/16 00:17:23;;;;;;;0.90;0.80;;;;;;;;;;5036005;28;20191;-51
2021/03/16 00:19:50;;;;;;;1.05;0.70;;;;;;;;;;5035278;28;20271;-51
2021/03/16 00:22:16;;;;;;;0.80;0.80;;;;;;;;;;5030229;28;20176;-51
2021/03/16 00:24:42;;;;;;;1.02;0.80;;;;;;;;;;5027565;28;20258;-52
2021/03/16 00:27:07;;;;;;;1.15;0.80;;;;;;;;;;5029525;28;20255;-51
2021/03/16 00:29:33;;;;;;;1.17;0.80;;;;;;;;;;5024983;28;20181;-51
2021/03/16 00:31:59;;;;;;;0.90;0.65;;;;;;;;;;5024159;28;20175;-51
2021/03/16 00:34:25;;;;;;;1.48;0.90;;;;;;;;;;5036243;28;20558;-51
2021/03/16 00:36:51;;;;;;;0.95;0.80;;;;;;;;;;5034440;28;20225;-51
2021/03/16 00:39:17;;;;;;;0.88;0.75;;;;;;;;;;5035052;28;20551;-50
2021/03/16 00:41:43;;;;;;;1.23;0.80;;;;;;;;;;5032749;28;20183;-50
2021/03/16 00:44:10;;;;;;;0.60;0.60;;;;;;;;;;5021249;28;20188;-50
2021/03/16 00:46:36;;;;;;;1.13;0.75;;;;;;;;;;5017124;28;20188;-50
2021/03/16 00:49:02;;;;;;;0.80;0.80;;;;;;;;;;5026650;28;20470;-51
2021/03/16 00:51:28;;;;;;;1.23;0.82;;;;;;;;;;5036391;28;20239;-51
2021/03/16 00:53:54;;;;;;;0.60;0.60;;;;;;;;;;5031766;28;20176;-51
2021/03/16 00:56:20;;;;;;;3.20;0.73;;;;;;;;;;5029675;28;20181;-51
2021/03/16 00:58:46;;;;;;;1.05;0.80;;;;;;;;;;5028822;28;20616;-51
2021/03/16 01:01:12;;;;;;;0.85;0.75;;;;;;;;;;5028683;28;20192;-51
2021/03/16 01:03:38;;;;;;;0.60;0.60;;;;;;;;;;5034198;28;20413;-51
2021/03/16 01:06:07;;;;;;;1.50;0.90;;;;;;;;;;5034754;28;20184;-51
2021/03/16 01:08:33;;;;;;;0.73;0.50;;;;;;;;;;5016784;28;20223;-51
2021/03/16 01:10:59;;;;;;;0.80;0.80;;;;;;;;;;5015990;28;20188;-51
2021/03/16 01:13:25;;;;;;;1.05;0.80;;;;;;;;;;5018869;28;20169;-51
2021/03/16 01:15:53;;;;;;;4.57;0.90;;;;;;;;;;5025805;28;20186;-51
2021/03/16 01:18:19;;;;;;;0.75;0.60;;;;;;;;;;5033077;28;20587;-51
2021/03/16 01:20:45;;;;;;;0.77;0.70;;;;;;;;;;5033915;28;20206;-51
2021/03/16 01:23:11;;;;;;;1.33;0.80;;;;;;;;;;5032186;28;20444;-51
2021/03/16 01:25:37;;;;;;;0.73;0.60;;;;;;;;;;5018802;28;20187;-51
2021/03/16 01:28:03;;;;;;;1.60;0.85;;;;;;;;;;5024468;28;20230;-51
2021/03/16 01:30:29;;;;;;;1.38;0.70;;;;;;;;;;5017932;28;20192;-51
2021/03/16 01:32:55;;;;;;;1.20;0.70;;;;;;;;;;5027889;28;20554;-51
2021/03/16 01:35:22;;;;;;;0.82;0.60;;;;;;;;;;5034955;28;20163;-51
2021/03/16 01:37:57;;;;;;;0.85;0.55;;;;;;;;;;5022288;28;20196;-51
2021/03/16 01:40:44;;;;;;;0.50;0.50;;;;;;;;;;5028041;28;20459;-51
2021/03/16 01:43:11;;;;;;;0.73;0.73;;;;;;;;;;5033577;28;20192;-51
2021/03/16 01:45:38;;;;;;;0.70;0.60;;;;;;;;;;5024983;28;20176;-51
2021/03/16 01:48:05;;;;;;;1.23;0.70;;;;;;;;;;5034274;28;20259;-51
2021/03/16 01:50:31;;;;;;;0.40;0.40;;;;;;;;;;5020077;28;20219;-51
2021/03/16 01:52:57;;;;;;;0.60;0.60;;;;;;;;;;5015481;28;20192;-51
2021/03/16 01:55:23;;;;;;;1.05;0.82;;;;;;;;;;5024457;28;20438;-51
2021/03/16 01:57:52;;;;;;;0.50;0.50;;;;;;;;;;5030339;28;20196;-51
2021/03/16 02:00:18;;;;;;;0.73;0.43;;;;;;;;;;5023565;28;20199;-51
2021/03/16 02:02:44;;;;;;;1.95;0.63;;;;;;;;;;5035224;28;20601;-50
2021/03/16 02:05:11;;;;;;;0.50;0.50;;;;;;;;;;5023012;28;20177;-51
2021/03/16 02:07:42;;;;;;;0.88;0.70;;;;;;;;;;5022613;28;20177;-51
2021/03/16 02:10:13;;;;;;;1.48;0.80;;;;;;;;;;5034109;28;20209;-51
2021/03/16 02:12:41;;;;;;;1.58;0.80;;;;;;;;;;5018014;28;20642;-51
2021/03/16 02:15:17;;;;;;;0.65;0.60;;;;;;;;;;5022002;28;20180;-51
2021/03/16 02:17:48;;;;;;;0.68;0.50;;;;;;;;;;5031369;28;20259;-51
2021/03/16 02:20:17;;;;;;;0.70;0.55;;;;;;;;;;5034512;28;20207;-51
2021/03/16 02:22:43;;;;;;;0.63;0.60;;;;;;;;;;5028056;28;20241;-51
2021/03/16 02:25:22;;;;;;;0.57;0.50;;;;;;;;;;5032769;28;20262;-51
2021/03/16 02:27:58;;;;;;;0.98;0.50;;;;;;;;;;5026029;28;20230;-51
2021/03/16 02:30:25;;;;;;;0.70;0.60;;;;;;;;;;5018084;28;20277;-51
2021/03/16 02:32:51;;;;;;;0.73;0.68;;;;;;;;;;5023557;28;20180;-50
2021/03/16 02:35:18;;;;;;;0.70;0.63;;;;;;;;;;5030673;28;20180;-50
2021/03/16 02:37:45;;;;;;;0.75;0.60;;;;;;;;;;5033853;28;20547;-50
2021/03/16 02:40:13;;;;;;;0.52;0.50;;;;;;;;;;5034857;28;20226;-51
2021/03/16 02:42:39;;;;;;;0.57;0.55;;;;;;;;;;5031143;28;20176;-51
2021/03/16 02:45:08;;;;;;;0.93;0.68;;;;;;;;;;5024257;28;20187;-51
2021/03/16 02:47:35;;;;;;;0.82;0.70;;;;;;;;;;5032491;28;20214;-51
2021/03/16 02:50:01;;;;;;;0.50;0.50;;;;;;;;;;5037540;28;20294;-51
2021/03/16 02:52:28;;;;;;;0.40;0.40;;;;;;;;;;5034611;28;20505;-51
2021/03/16 02:54:54;;;;;;;1.23;0.70;;;;;;;;;;5018495;28;20543;-51
2021/03/16 02:57:21;;;;;;;0.63;0.47;;;;;;;;;;5038658;28;20215;-51
2021/03/16 02:59:48;;;;;;;0.50;0.50;;;;;;;;;;5026117;28;20181;-51
2021/03/16 03:02:14;;;;;;;0.60;0.60;;;;;;;;;;5034790;28;20204;-51
2021/03/16 03:04:41;;;;;;;0.63;0.60;;;;;;;;;;5034315;28;20176;-51
2021/03/16 03:07:11;;;;;;;0.57;0.40;;;;;;;;;;5034666;28;20169;-51
2021/03/16 03:09:38;;;;;;;1.48;0.50;;;;;;;;;;5018292;28;20235;-51
2021/03/16 03:12:08;;;;;;;0.90;0.50;;;;;;;;;;5028429;28;20254;-51
2021/03/16 03:14:34;;;;;;;0.55;0.40;;;;;;;;;;5026230;28;20451;-51
2021/03/16 03:17:01;;;;;;;0.68;0.60;;;;;;;;;;5036123;28;20176;-51
2021/03/16 03:19:27;;;;;;;0.82;0.35;;;;;;;;;;5028219;28;20188;-51
2021/03/16 03:21:58;;;;;;;0.45;0.40;;;;;;;;;;5019769;28;20187;-51
2021/03/16 03:24:27;;;;;;;1.23;0.68;;;;;;;;;;5037285;28;20186;-51
2021/03/16 03:26:56;;;;;;;0.73;0.50;;;;;;;;;;5036522;28;20198;-51
2021/03/16 03:29:24;;;;;;;0.90;0.50;;;;;;;;;;5027047;28;20190;-51
2021/03/16 03:31:51;;;;;;;0.47;0.47;;;;;;;;;;5020291;28;20208;-51
2021/03/16 03:34:18;;;;;;;1.30;0.52;;;;;;;;;;5030298;28;20283;-51
2021/03/16 03:36:46;;;;;;;1.38;0.65;;;;;;;;;;5023978;28;20177;-51
2021/03/16 03:39:12;;;;;;;0.57;0.50;;;;;;;;;;5025244;28;20186;-51
2021/03/16 03:41:39;;;;;;;0.55;0.40;;;;;;;;;;5037142;28;20195;-51
2021/03/16 03:44:07;;;;;;;0.50;0.40;;;;;;;;;;5029557;28;20218;-51
2021/03/16 03:46:34;;;;;;;0.47;0.40;;;;;;;;;;5036769;28;20176;-51
2021/03/16 03:49:03;;;;;;;0.50;0.50;;;;;;;;;;5020275;28;20426;-50
2021/03/16 03:51:30;;;;;;;0.50;0.50;;;;;;;;;;5017294;28;20591;-51
2021/03/16 03:53:57;;;;;;;0.40;0.40;;;;;;;;;;5032142;28;20632;-51
2021/03/16 03:56:24;;;;;;;0.60;0.50;;;;;;;;;;5028260;28;20185;-51
2021/03/16 03:58:50;;;;;;;0.82;0.43;;;;;;;;;;5034394;28;20179;-51
2021/03/16 04:01:17;;;;;;;0.77;0.43;;;;;;;;;;5035670;28;20211;-50
2021/03/16 04:03:43;;;;;;;0.55;0.55;;;;;;;;;;5036954;28;20454;-50
2021/03/16 04:06:09;;;;;;;0.73;0.60;;;;;;;;;;5018440;28;20180;-51
2021/03/16 04:08:36;;;;;;;0.95;0.40;;;;;;;;;;5024418;28;20180;-51
2021/03/16 04:11:03;;;;;;;0.65;0.47;;;;;;;;;;5017182;28;20280;-51
2021/03/16 04:13:29;;;;;;;0.45;0.43;;;;;;;;;;5022113;28;20183;-51
2021/03/16 04:15:55;;;;;;;0.77;0.60;;;;;;;;;;5016705;28;20259;-51
2021/03/16 04:18:22;;;;;;;0.55;0.40;;;;;;;;;;5030929;28;20180;-51
2021/03/16 04:20:49;;;;;;;0.50;0.43;;;;;;;;;;5036837;28;20178;-51
2021/03/16 04:23:15;;;;;;;0.50;0.50;;;;;;;;;;5021068;28;20241;-51
2021/03/16 04:25:41;;;;;;;0.40;0.40;;;;;;;;;;5017538;28;20185;-51
2021/03/16 04:28:07;;;;;;;0.30;0.30;;;;;;;;;;5021091;28;20191;-51
2021/03/16 04:30:33;;;;;;;0.65;0.63;;;;;;;;;;5034803;28;20476;-51
2021/03/16 04:32:59;;;;;;;0.70;0.60;;;;;;;;;;5034385;28;20184;-51
2021/03/16 04:35:25;;;;;;;1.05;0.60;;;;;;;;;;5029670;28;20180;-51
2021/03/16 04:37:51;;;;;;;0.75;0.40;;;;;;;;;;5028816;28;20219;-51
2021/03/16 04:40:17;;;;;;;0.73;0.45;;;;;;;;;;5028639;28;20524;-51
2021/03/16 04:42:43;;;;;;;0.55;0.43;;;;;;;;;;5016886;28;20739;-51
2021/03/16 04:45:09;;;;;;;0.77;0.50;;;;;;;;;;5022492;28;20183;-51
2021/03/16 04:47:35;;;;;;;0.63;0.60;;;;;;;;;;5017985;28;20185;-51
2021/03/16 04:50:02;;;;;;;1.15;0.40;;;;;;;;;;5025278;28;20215;-51
2021/03/16 04:52:28;;;;;;;1.05;0.40;;;;;;;;;;5023205;28;20567;-51
2021/03/16 04:54:54;;;;;;;14.50;3.30;;;;;;;;;;5016223;28;20230;-51
2021/03/16 04:57:20;;;;;;;15.40;5.22;;;;;;;;;;5035608;28;20426;-51
2021/03/16 04:59:46;;;;;;;13.88;4.75;;;;;;;;;;5029702;28;20203;-51
2021/03/16 05:02:13;;;;;;;17.50;3.58;;;;;;;;;;5016082;28;20199;-51
2021/03/16 05:04:39;;;;;;;10.05;2.65;;;;;;;;;;5032412;28;20198;-51
2021/03/16 05:07:05;;;;;;;7.00;2.60;;;;;;;;;;5034986;28;20535;-51
2021/03/16 05:09:31;;;;;;;8.35;2.38;;;;;;;;;;5016103;28;20179;-51
2021/03/16 05:11:58;;;;;;;9.55;2.60;;;;;;;;;;5021134;28;20204;-51
2021/03/16 05:14:24;;;;;;;9.02;2.55;;;;;;;;;;5025204;28;20227;-51
2021/03/16 05:16:50;;;;;;;9.15;2.85;;;;;;;;;;5032127;28;20204;-51
2021/03/16 05:19:15;;;;;;;8.05;2.90;;;;;;;;;;5017163;28;20560;-51
2021/03/16 05:21:41;;;;;;;6.22;2.20;;;;;;;;;;5015940;28;20169;-51
2021/03/16 05:24:08;;;;;;;7.30;2.45;;;;;;;;;;5017416;28;20223;-51
2021/03/16 05:26:34;;;;;;;6.35;2.13;;;;;;;;;;5016096;28;20671;-51
2021/03/16 05:29:00;;;;;;;9.00;2.35;;;;;;;;;;5024540;28;20196;-51
2021/03/16 05:31:26;;;;;;;7.55;2.00;;;;;;;;;;5028825;28;20204;-51
2021/03/16 05:33:52;;;;;;;6.07;2.00;;;;;;;;;;5035623;28;20198;-51
2021/03/16 05:36:18;;;;;;;6.85;2.05;;;;;;;;;;5034598;28;20175;-51
2021/03/16 05:38:44;;;;;;;6.60;2.20;;;;;;;;;;5024388;28;20190;-51
2021/03/16 05:41:10;;;;;;;4.85;1.75;;;;;;;;;;5017565;28;20267;-51
2021/03/16 05:43:37;;;;;;;7.32;2.50;;;;;;;;;;5018485;28;20212;-51
2021/03/16 05:46:03;;;;;;;8.35;2.03;;;;;;;;;;5024055;28;20234;-51
2021/03/16 05:48:29;;;;;;;6.32;1.70;;;;;;;;;;5029967;28;20233;-51
2021/03/16 05:50:59;;;;;;;5.65;2.05;;;;;;;;;;5035337;28;20204;-51
2021/03/16 05:53:25;;;;;;;4.57;1.88;;;;;;;;;;5027164;28;20621;-51
2021/03/16 05:55:52;;;;;;;7.28;2.13;;;;;;;;;;5025390;28;20267;-51
2021/03/16 05:58:18;;;;;;;5.00;1.70;;;;;;;;;;5038620;28;20196;-51
2021/03/16 06:00:44;;;;;;;4.18;1.63;;;;;;;;;;5030400;28;20249;-51
2021/03/16 06:03:10;;;;;;;4.13;1.75;;;;;;;;;;5034954;28;20530;-51
2021/03/16 06:05:36;;;;;;;5.25;1.70;;;;;;;;;;5032126;28;20179;-51
2021/03/16 06:08:02;;;;;;;4.00;1.58;;;;;;;;;;5015810;28;20606;-51
2021/03/16 06:10:28;;;;;;;5.30;1.90;;;;;;;;;;5025265;28;20206;-50
2021/03/16 06:12:55;;;;;;;5.68;1.50;;;;;;;;;;5034199;28;20235;-51
2021/03/16 06:15:22;;;;;;;3.80;1.80;;;;;;;;;;5022761;28;20177;-51
2021/03/16 06:17:49;;;;;;;6.30;1.50;;;;;;;;;;5014850;28;20410;-51
2021/03/16 06:20:35;;;;;;;2.88;1.30;;;;;;;;;;5015883;28;20175;-51
2021/03/16 06:23:11;;;;;;;4.93;1.25;;;;;;;;;;5021887;28;20203;-51
2021/03/16 06:25:39;;;;;;;4.03;1.75;;;;;;;;;;5023064;28;20555;-51
2021/03/16 06:28:06;;;;;;;3.67;1.50;;;;;;;;;;5038554;28;20184;-51
2021/03/16 06:30:33;;;;;;;3.65;1.50;;;;;;;;;;5027474;28;20219;-51
2021/03/16 06:32:59;;;;;;;3.95;1.38;;;;;;;;;;5022779;28;20178;-51
2021/03/16 06:35:25;;;;;;;3.30;1.50;;;;;;;;;;5026097;28;20578;-51
2021/03/16 06:38:00;;;;;;;3.42;1.30;;;;;;;;;;5027446;28;20615;-51
2021/03/16 06:40:30;;;;;;;2.88;1.40;;;;;;;;;;5026998;28;20215;-51
2021/03/16 06:43:22;;;;;;;3.63;1.20;;;;;;;;;;5028879;28;20270;-50
2021/03/16 06:45:51;;;;;;;2.65;1.15;;;;;;;;;;5021706;28;20207;-51
2021/03/16 06:48:18;;;;;;;4.15;1.50;;;;;;;;;;5036765;28;20176;-51
2021/03/16 06:50:44;;;;;;;3.15;1.27;;;;;;;;;;5026361;28;20215;-51
2021/03/16 06:53:14;;;;;;;2.83;1.20;;;;;;;;;;5038383;28;20467;-51
2021/03/16 06:55:51;;;;;;;2.83;1.38;;;;;;;;;;5038801;28;20554;-51
2021/03/16 06:58:17;;;;;;;3.65;1.52;;;;;;;;;;5038811;28;20187;-51
2021/03/16 07:00:43;;;;;;;2.40;1.30;;;;;;;;;;5020323;28;20196;-51
2021/03/16 07:03:13;;;;;;;2.65;1.00;;;;;;;;;;5022238;28;20184;-51
2021/03/16 07:05:39;;;;;;;3.60;1.20;;;;;;;;;;5030351;28;20196;-51
2021/03/16 07:08:06;;;;;;;2.65;1.10;;;;;;;;;;5038224;28;20187;-51
2021/03/16 07:10:33;;;;;;;2.03;1.17;;;;;;;;;;5037238;28;20295;-51
2021/03/16 07:13:00;;;;;;;7.15;1.50;;;;;;;;;;5038283;28;20164;-51
2021/03/16 07:15:27;;;;;;;2.20;1.27;;;;;;;;;;5035798;28;20182;-51
2021/03/16 07:17:53;;;;;;;2.30;1.02;;;;;;;;;;5036041;28;20182;-51
2021/03/16 07:20:19;;;;;;;3.20;1.08;;;;;;;;;;5021706;28;20467;-51
2021/03/16 07:22:51;;;;;;;2.45;1.00;;;;;;;;;;5034059;28;20183;-51
2021/03/16 07:25:19;;;;;;;1.60;1.00;;;;;;;;;;5026951;28;20180;-51
2021/03/16 07:27:46;;;;;;;2.83;1.02;;;;;;;;;;5031011;28;20183;-51
2021/03/16 07:30:13;;;;;;;2.58;1.33;;;;;;;;;;5028439;28;20212;-51
2021/03/16 07:32:39;;;;;;;2.95;1.08;;;;;;;;;;5036263;28;20602;-51
2021/03/16 07:35:05;;;;;;;2.10;1.10;;;;;;;;;;5034445;28;20175;-51
2021/03/16 07:37:31;;;;;;;1.63;0.93;;;;;;;;;;5035224;28;20190;-51
2021/03/16 07:40:00;;;;;;;1.42;0.90;;;;;;;;;;5023992;28;20212;-51
2021/03/16 07:42:27;;;;;;;2.55;1.08;;;;;;;;;;5032363;28;20177;-51
2021/03/16 07:44:53;;;;;;;1.65;1.08;;;;;;;;;;5028736;28;20516;-51
2021/03/16 07:47:19;;;;;;;2.25;0.95;;;;;;;;;;5037035;28;20213;-51
2021/03/16 07:49:45;;;;;;;1.42;0.85;;;;;;;;;;5025182;28;20234;-51
2021/03/16 07:52:19;;;;;;;3.95;1.27;;;;;;;;;;5027424;28;20207;-51
2021/03/16 07:54:49;;;;;;;1.60;0.90;;;;;;;;;;5024468;28;20181;-51
2021/03/16 07:57:25;;;;;;;1.83;1.10;;;;;;;;;;5029028;28;20203;-51
2021/03/16 08:00:01;;;;;;;2.75;1.05;;;;;;;;;;5028589;28;20286;-51
2021/03/16 08:02:30;;;;;;;6.43;1.60;;;;;;;;;;5027350;28;20575;-51
2021/03/16 08:04:56;;;;;;;19.08;4.88;;;;;;;;;;5028530;28;20266;-51
2021/03/16 08:07:28;;;;;;;215.18;39.28;;;;;;;;;;5031036;28;20177;-51
2021/03/16 08:09:57;;;;;;;175.63;34.85;;;;;;;;;;5023371;28;20199;-51
2021/03/16 08:12:29;;;;;;;141.60;30.30;;;;;;;;;;5033027;28;20203;-51
2021/03/16 08:14:55;;;;;;;127.43;26.48;;;;;;;;;;5024516;28;20175;-51
2021/03/16 08:17:31;;;;;;;106.82;22.13;;;;;;;;;;5033432;28;20233;-51
2021/03/16 08:19:58;;;;;;;89.38;19.52;;;;;;;;;;5028827;28;20198;-51
2021/03/16 08:22:25;;;;;;;84.28;18.42;;;;;;;;;;5029505;28;20175;-51
2021/03/16 08:24:53;;;;;;;76.30;19.15;;;;;;;;;;5035736;28;20192;-51
2021/03/16 08:27:19;;;;;;;88.68;17.45;;;;;;;;;;5020652;28;20438;-51
2021/03/16 08:29:47;;;;;;;75.70;17.55;;;;;;;;;;5036574;28;20543;-51
2021/03/16 08:32:14;;;;;;;68.95;16.27;;;;;;;;;;5021324;28;20188;-51
2021/03/16 08:34:41;;;;;;;71.28;16.90;;;;;;;;;;5023842;28;20235;-51
2021/03/16 08:37:07;;;;;;;68.07;16.23;;;;;;;;;;5036306;28;20185;-51
2021/03/16 08:39:33;;;;;;;58.95;13.38;;;;;;;;;;5024556;28;20195;-51
2021/03/16 08:42:00;;;;;;;55.22;14.40;;;;;;;;;;5016536;28;20188;-51
2021/03/16 08:44:27;;;;;;;57.80;15.48;;;;;;;;;;5018315;28;20262;-51
2021/03/16 08:46:57;;;;;;;65.68;14.68;;;;;;;;;;5036414;28;20180;-51
2021/03/16 08:49:24;;;;;;;53.60;14.32;;;;;;;;;;5028320;28;20599;-51
2021/03/16 08:51:50;;;;;;;54.33;13.98;;;;;;;;;;5016218;28;20201;-51
2021/03/16 08:54:23;;;;;;;43.58;12.95;;;;;;;;;;5016120;28;20169;-51
2021/03/16 08:56:49;;;;;;;40.97;11.23;;;;;;;;;;5025912;28;20182;-51
2021/03/16 08:59:18;;;;;;;42.75;12.38;;;;;;;;;;5033325;28;20184;-51
2021/03/16 09:01:47;;;;;;;36.80;10.68;;;;;;;;;;5033596;28;20268;-51
2021/03/16 09:04:13;;;;;;;35.92;10.70;;;;;;;;;;5029896;28;20195;-51
2021/03/16 09:06:39;;;;;;;39.00;12.13;;;;;;;;;;5019924;28;20184;-51
2021/03/16 09:09:06;;;;;;;39.75;11.73;;;;;;;;;;5023257;28;20188;-51
2021/03/16 09:11:34;;;;;;;34.50;10.13;;;;;;;;;;5016101;28;20258;-51
2021/03/16 09:14:26;;;;;;;35.97;10.85;;;;;;;;;;5024584;28;20542;-51
2021/03/16 09:16:53;;;;;;;29.35;10.25;;;;;;;;;;5015519;28;20196;-51
2021/03/16 09:19:26;;;;;;;32.35;10.15;;;;;;;;;;5024660;28;20177;-51
2021/03/16 09:21:56;;;;;;;32.13;9.63;;;;;;;;;;5023572;28;20183;-51
2021/03/16 09:24:24;;;;;;;30.17;9.15;;;;;;;;;;5023394;28;20246;-51
2021/03/16 09:26:53;;;;;;;30.95;9.35;;;;;;;;;;5015762;28;20172;-51
2021/03/16 09:29:19;;;;;;;33.30;10.07;;;;;;;;;;5022734;28;20179;-51
2021/03/16 09:31:45;;;;;;;34.20;9.45;;;;;;;;;;5035599;28;20516;-51
2021/03/16 09:34:14;;;;;;;26.77;8.65;;;;;;;;;;5024287;28;20583;-51
2021/03/16 09:36:40;;;;;;;30.10;9.30;;;;;;;;;;5020748;28;20456;-51
2021/03/16 09:39:06;;;;;;;24.40;8.00;;;;;;;;;;5015829;28;20176;-51
2021/03/16 09:41:33;;;;;;;26.27;8.35;;;;;;;;;;5015545;28;20188;-51
2021/03/16 09:43:59;;;;;;;26.52;8.55;;;;;;;;;;5028350;28;20211;-51
2021/03/16 09:46:25;;;;;;;24.10;7.30;;;;;;;;;;5032201;28;20593;-51
2021/03/16 09:48:52;;;;;;;21.83;7.47;;;;;;;;;;5028778;28;20215;-51
2021/03/16 09:51:23;;;;;;;21.60;7.57;;;;;;;;;;5022807;28;20188;-51
2021/03/16 09:53:50;;;;;;;21.13;6.88;;;;;;;;;;5032277;28;20175;-51
2021/03/16 09:56:16;;;;;;;22.60;7.85;;;;;;;;;;5026487;28;20176;-51
2021/03/16 09:58:49;;;;;;;15.75;6.53;;;;;;;;;;5034802;28;20188;-51
2021/03/16 10:01:19;;;;;;;26.05;7.05;;;;;;;;;;5035322;28;20176;-51
2021/03/16 10:03:54;;;;;;;18.08;6.72;;;;;;;;;;5033433;28;20515;-51
2021/03/16 10:06:31;;;;;;;19.15;6.88;;;;;;;;;;5034376;28;20446;-51
2021/03/16 10:08:57;;;;;;;17.58;6.63;;;;;;;;;;5029641;28;20179;-51
2021/03/16 10:11:29;;;;;;;19.05;6.05;;;;;;;;;;5034667;28;20246;-51
2021/03/16 10:13:55;;;;;;;18.45;6.60;;;;;;;;;;5035023;28;20168;-51
2021/03/16 10:16:21;;;;;;;15.40;6.68;;;;;;;;;;5021828;28;20191;-51
2021/03/16 10:18:48;;;;;;;21.00;6.50;;;;;;;;;;5023781;28;20199;-51
2021/03/16 10:21:14;;;;;;;14.50;5.60;;;;;;;;;;5033359;28;20207;-51
2021/03/16 10:23:41;;;;;;;15.88;6.07;;;;;;;;;;5020548;28;20590;-51
2021/03/16 10:26:08;;;;;;;15.40;5.82;;;;;;;;;;5034669;28;20175;-51
2021/03/16 10:28:44;;;;;;;15.27;5.57;;;;;;;;;;5031599;28;20244;-51
2021/03/16 10:31:10;;;;;;;14.77;5.70;;;;;;;;;;5015007;28;20211;-50
2021/03/16 10:33:36;;;;;;;12.02;5.20;;;;;;;;;;5015122;28;20230;-50
2021/03/16 10:36:02;;;;;;;12.45;5.03;;;;;;;;;;5029947;28;20283;-50
2021/03/16 10:38:29;;;;;;;11.45;4.88;;;;;;;;;;5028836;28;20566;-50
2021/03/16 10:40:55;;;;;;;13.88;5.03;;;;;;;;;;5018154;28;20181;-50
2021/03/16 10:43:21;;;;;;;12.80;4.72;;;;;;;;;;5014354;28;20172;-51
2021/03/16 10:45:47;;;;;;;13.65;5.47;;;;;;;;;;5014179;28;20160;-50
2021/03/16 10:48:13;;;;;;;10.88;4.60;;;;;;;;;;5029439;28;20266;-50
2021/03/16 10:50:39;;;;;;;12.98;4.95;;;;;;;;;;5029161;28;20214;-51
2021/03/16 10:53:05;;;;;;;10.45;3.97;;;;;;;;;;5017151;28;20194;-50
2021/03/16 10:55:31;;;;;;;10.70;4.38;;;;;;;;;;5018772;28;20518;-50
2021/03/16 10:57:57;;;;;;;13.00;4.72;;;;;;;;;;5031281;28;20219;-50
2021/03/16 11:00:23;;;;;;;9.18;3.92;;;;;;;;;;5014897;28;20532;-50
2021/03/16 11:02:49;;;;;;;9.40;4.35;;;;;;;;;;5021176;28;20188;-50
2021/03/16 11:05:15;;;;;;;9.63;4.25;;;;;;;;;;5026628;28;20176;-50
2021/03/16 11:07:41;;;;;;;9.10;3.90;;;;;;;;;;5029181;28;20478;-50
2021/03/16 11:10:07;;;;;;;9.30;4.13;;;;;;;;;;5018528;28;20185;-50
2021/03/16 11:12:33;;;;;;;10.38;4.25;;;;;;;;;;5020461;28;20447;-50
2021/03/16 11:14:59;;;;;;;8.45;4.05;;;;;;;;;;5017607;28;20176;-50
2021/03/16 11:17:25;;;;;;;6.47;3.40;;;;;;;;;;5026111;28;20198;-50
2021/03/16 11:19:51;;;;;;;6.97;3.47;;;;;;;;;;5033728;28;20230;-50
2021/03/16 11:22:17;;;;;;;8.13;3.50;;;;;;;;;;5029503;28;20190;-50
2021/03/16 11:24:43;;;;;;;7.70;3.60;;;;;;;;;;5033515;28;20254;-50
2021/03/16 11:27:10;;;;;;;8.23;3.42;;;;;;;;;;5017985;28;20707;-51
2021/03/16 11:29:36;;;;;;;8.15;3.60;;;;;;;;;;5019086;28;20207;-50
2021/03/16 11:32:02;;;;;;;7.38;3.33;;;;;;;;;;5034975;28;20245;-50
2021/03/16 11:34:30;;;;;;;7.32;3.20;;;;;;;;;;5035710;28;20199;-50
2021/03/16 11:36:56;;;;;;;6.38;2.88;;;;;;;;;;5036764;28;20180;-50
2021/03/16 11:39:22;;;;;;;8.43;3.38;;;;;;;;;;5037716;28;20189;-50
2021/03/16 11:41:48;;;;;;;6.20;3.10;;;;;;;;;;5037570;28;20179;-50
2021/03/16 11:44:14;;;;;;;6.55;3.03;;;;;;;;;;5035251;28;20180;-50
2021/03/16 11:46:40;;;;;;;7.30;3.08;;;;;;;;;;5035811;28;20176;-50
2021/03/16 11:49:06;;;;;;;9.50;3.55;;;;;;;;;;5032972;28;20199;-51
2021/03/16 11:51:32;;;;;;;7.10;2.63;;;;;;;;;;5028552;28;20222;-50
2021/03/16 11:53:58;;;;;;;7.97;3.05;;;;;;;;;;5017281;28;20176;-51
2021/03/16 11:56:24;;;;;;;4.63;2.53;;;;;;;;;;5019997;28;20173;-50
2021/03/16 11:58:50;;;;;;;7.68;2.88;;;;;;;;;;5057117;28;20207;-50
2021/03/16 12:01:16;;;;;;;5.90;2.78;;;;;;;;;;5034991;28;20176;-50
2021/03/16 12:03:42;;;;;;;8.80;3.28;;;;;;;;;;5026653;28;20521;-50
2021/03/16 12:06:08;;;;;;;6.43;2.65;;;;;;;;;;5023891;28;20493;-50
2021/03/16 12:08:34;;;;;;;3.92;2.33;;;;;;;;;;5037132;28;20164;-50
2021/03/16 12:11:00;;;;;;;5.05;2.45;;;;;;;;;;5028412;28;20435;-51
2021/03/16 12:13:26;;;;;;;5.95;2.95;;;;;;;;;;5028299;28;20172;-51
2021/03/16 12:15:52;;;;;;;4.10;2.40;;;;;;;;;;5025159;28;20447;-50
2021/03/16 12:18:18;;;;;;;3.75;2.22;;;;;;;;;;5030705;28;20194;-50
2021/03/16 12:20:44;;;;;;;4.88;2.38;;;;;;;;;;5030376;28;20700;-50
2021/03/16 12:23:10;;;;;;;5.63;2.50;;;;;;;;;;5027851;28;20539;-50
2021/03/16 12:25:36;;;;;;;3.70;2.13;;;;;;;;;;5016687;28;20196;-50
2021/03/16 12:28:02;;;;;;;3.60;2.10;;;;;;;;;;5016538;28;20222;-50
2021/03/16 12:30:28;;;;;;;3.03;2.03;;;;;;;;;;5017605;28;20258;-50
2021/03/16 12:32:54;;;;;;;4.63;2.65;;;;;;;;;;5030249;28;20234;-50
2021/03/16 12:35:21;;;;;;;4.88;2.15;;;;;;;;;;5022782;28;20203;-50
2021/03/16 12:37:47;;;;;;;4.05;2.25;;;;;;;;;;5020965;28;20287;-50
2021/03/16 12:40:13;;;;;;;4.47;2.33;;;;;;;;;;5017994;28;20596;-51
2021/03/16 12:42:39;;;;;;;4.07;2.28;;;;;;;;;;5036320;28;20467;-51
2021/03/16 12:45:06;;;;;;;4.13;1.92;;;;;;;;;;5035705;28;20175;-50
2021/03/16 12:47:32;;;;;;;3.63;2.00;;;;;;;;;;5030841;28;20626;-50
2021/03/16 12:49:58;;;;;;;4.60;1.98;;;;;;;;;;5023556;28;20236;-50
2021/03/16 12:52:24;;;;;;;3.92;1.83;;;;;;;;;;5027317;28;20548;-50
2021/03/16 12:54:50;;;;;;;2.97;2.10;;;;;;;;;;5015935;28;20693;-50
2021/03/16 12:57:18;;;;;;;4.15;1.90;;;;;;;;;;5033169;28;20594;-50
2021/03/16 12:59:47;;;;;;;2.75;1.63;;;;;;;;;;5042290;28;20294;-51
2021/03/16 13:02:13;;;;;;;3.50;1.55;;;;;;;;;;5024227;28;20919;-51
2021/03/16 13:04:39;;;;;;;3.33;1.60;;;;;;;;;;5015021;28;20259;-50
2021/03/16 13:07:05;;;;;;;3.47;1.95;;;;;;;;;;5015278;28;20226;-50
2021/03/16 13:09:31;;;;;;;2.63;1.67;;;;;;;;;;5022107;28;20192;-51
2021/03/16 13:11:58;;;;;;;3.25;1.75;;;;;;;;;;5035472;28;20192;-51
2021/03/16 13:14:24;;;;;;;2.97;1.40;;;;;;;;;;5035510;28;20182;-51
2021/03/16 13:16:50;;;;;;;3.40;1.95;;;;;;;;;;5034292;28;20183;-51
2021/03/16 13:19:16;;;;;;;4.55;1.60;;;;;;;;;;5032198;28;20681;-50
2021/03/16 13:21:43;;;;;;;4.80;1.55;;;;;;;;;;5033864;28;20180;-50
2021/03/16 13:24:09;;;;;;;2.35;1.50;;;;;;;;;;5015316;28;20572;-50
2021/03/16 13:26:35;;;;;;;2.33;1.45;;;;;;;;;;5018243;28;20184;-50
2021/03/16 13:29:02;;;;;;;2.67;1.35;;;;;;;;;;5035711;28;20183;-51
2021/03/16 13:31:28;;;;;;;2.80;1.42;;;;;;;;;;5035393;28;20254;-51
2021/03/16 13:33:54;;;;;;;2.83;1.75;;;;;;;;;;5034813;28;20451;-51
2021/03/16 13:36:20;;;;;;;2.45;1.48;;;;;;;;;;5022361;28;20250;-51
2021/03/16 13:38:46;;;;;;;4.95;1.70;;;;;;;;;;5035328;28;20225;-51
2021/03/16 13:41:12;;;;;;;2.10;1.23;;;;;;;;;;5035466;28;20566;-51
2021/03/16 13:43:38;;;;;;;2.17;1.58;;;;;;;;;;5035351;28;20172;-51
2021/03/16 13:46:04;;;;;;;2.35;1.20;;;;;;;;;;5021939;28;20200;-51
2021/03/16 13:48:30;;;;;;;2.35;1.65;;;;;;;;;;5015619;28;20278;-51
2021/03/16 13:50:56;;;;;;;1.85;1.52;;;;;;;;;;5015956;28;20192;-51
2021/03/16 13:53:23;;;;;;;3.55;1.48;;;;;;;;;;5016060;28;20360;-51
2021/03/16 13:55:49;;;;;;;1.70;1.23;;;;;;;;;;5015039;28;20177;-51
2021/03/16 13:58:15;;;;;;;1.65;1.15;;;;;;;;;;5048694;28;20171;-51
2021/03/16 14:00:41;;;;;;;2.05;1.10;;;;;;;;;;5055200;28;20171;-51
2021/03/16 14:03:07;;;;;;;2.95;1.40;;;;;;;;;;5055331;28;20308;-51
2021/03/16 14:05:33;;;;;;;2.13;1.40;;;;;;;;;;5055157;28;20250;-51
2021/03/16 14:07:59;;;;;;;2.72;1.17;;;;;;;;;;5039485;28;20180;-51
2021/03/16 14:10:25;;;;;;;1.58;1.27;;;;;;;;;;5015465;28;20445;-51
2021/03/16 14:12:51;;;;;;;1.70;1.30;;;;;;;;;;5015462;28;20176;-51
2021/03/16 14:15:17;;;;;;;2.65;1.30;;;;;;;;;;5015018;28;20554;-51
2021/03/16 14:17:43;;;;;;;1.63;1.00;;;;;;;;;;5033630;28;20183;-51
2021/03/16 14:20:11;;;;;;;1.40;0.95;;;;;;;;;;5035195;28;20199;-51
2021/03/16 14:22:39;;;;;;;2.17;1.27;;;;;;;;;;5027453;28;20469;-51
2021/03/16 14:25:06;;;;;;;2.17;1.42;;;;;;;;;;5020183;28;20175;-51
2021/03/16 14:27:32;;;;;;;1.13;1.02;;;;;;;;;;5027609;28;20191;-51
2021/03/16 14:29:58;;;;;;;2.30;1.10;;;;;;;;;;5015254;28;20184;-51
2021/03/16 14:32:24;;;;;;;2.67;1.20;;;;;;;;;;5016477;28;20215;-51
2021/03/16 14:34:50;;;;;;;2.63;1.15;;;;;;;;;;5033531;28;20204;-51
2021/03/16 14:37:16;;;;;;;2.00;1.10;;;;;;;;;;5027401;28;20172;-51